sensor_id;sensor_type;location;lat;lon;timestamp;temperature;humidity
21891;DHT22;11110;52.386;16.940;2023-02-03T00:01:11;16.40;38.90
21891;DHT22;11110;52.386;16.940;2023-02-03T00:03:39;16.40;38.70
21891;DHT22;11110;52.386;16.940;2023-02-03T00:06:08;16.40;38.70
21891;DHT22;11110;52.386;16.940;2023-02-03T00:08:37;16.40;38.80
21891;DHT22;11110;52.386;16.940;2023-02-03T00:11:06;16.40;38.70
21891;DHT22;11110;52.386;16.940;2023-02-03T00:13:36;16.50;38.80
21891;DHT22;11110;52.386;16.940;2023-02-03T00:16:05;16.40;38.80
21891;DHT22;11110;52.386;16.940;2023-02-03T00:18:34;16.50;38.80
21891;DHT22;11110;52.386;16.940;2023-02-03T00:21:02;16.40;38.80
21891;DHT22;11110;52.386;16.940;2023-02-03T00:23:31;16.40;38.70
21891;DHT22;11110;52.386;16.940;2023-02-03T00:26:06;16.30;38.80
21891;DHT22;11110;52.386;16.940;2023-02-03T00:28:37;16.40;38.80
21891;DHT22;11110;52.386;16.940;2023-02-03T00:31:12;16.40;38.90
21891;DHT22;11110;52.386;16.940;2023-02-03T00:33:41;16.40;38.80
21891;DHT22;11110;52.386;16.940;2023-02-03T00:36:11;16.40;38.90
21891;DHT22;11110;52.386;16.940;2023-02-03T00:38:39;16.30;38.80
21891;DHT22;11110;52.386;16.940;2023-02-03T00:41:09;16.30;38.90
21891;DHT22;11110;52.386;16.940;2023-02-03T00:43:39;16.30;38.90
21891;DHT22;11110;52.386;16.940;2023-02-03T00:46:07;16.30;39.00
21891;DHT22;11110;52.386;16.940;2023-02-03T00:48:36;16.30;39.00
21891;DHT22;11110;52.386;16.940;2023-02-03T00:51:05;16.20;39.00
21891;DHT22;11110;52.386;16.940;2023-02-03T00:53:34;16.20;39.00
21891;DHT22;11110;52.386;16.940;2023-02-03T00:56:03;16.20;39.10
21891;DHT22;11110;52.386;16.940;2023-02-03T00:58:40;16.20;39.20
21891;DHT22;11110;52.386;16.940;2023-02-03T01:01:09;16.20;39.20
21891;DHT22;11110;52.386;16.940;2023-02-03T01:03:38;16.30;39.20
21891;DHT22;11110;52.386;16.940;2023-02-03T01:06:09;16.30;39.10
21891;DHT22;11110;52.386;16.940;2023-02-03T01:08:38;16.30;39.00
21891;DHT22;11110;52.386;16.940;2023-02-03T01:11:07;16.40;38.90
21891;DHT22;11110;52.386;16.940;2023-02-03T01:13:36;16.30;38.90
21891;DHT22;11110;52.386;16.940;2023-02-03T01:16:10;16.40;38.90
21891;DHT22;11110;52.386;16.940;2023-02-03T01:18:40;16.40;38.80
21891;DHT22;11110;52.386;16.940;2023-02-03T01:21:11;16.40;38.70
21891;DHT22;11110;52.386;16.940;2023-02-03T01:23:40;16.40;38.70
21891;DHT22;11110;52.386;16.940;2023-02-03T01:26:12;16.40;38.70
21891;DHT22;11110;52.386;16.940;2023-02-03T01:28:41;16.30;38.70
21891;DHT22;11110;52.386;16.940;2023-02-03T01:31:14;16.30;38.90
21891;DHT22;11110;52.386;16.940;2023-02-03T01:33:43;16.20;39.00
21891;DHT22;11110;52.386;16.940;2023-02-03T01:36:13;16.20;39.10
21891;DHT22;11110;52.386;16.940;2023-02-03T01:38:43;16.10;39.10
21891;DHT22;11110;52.386;16.940;2023-02-03T01:41:16;16.10;39.20
21891;DHT22;11110;52.386;16.940;2023-02-03T01:43:47;16.10;39.20
21891;DHT22;11110;52.386;16.940;2023-02-03T01:46:27;16.10;39.20
21891;DHT22;11110;52.386;16.940;2023-02-03T01:49:03;16.10;39.20
21891;DHT22;11110;52.386;16.940;2023-02-03T01:51:35;16.10;39.30
21891;DHT22;11110;52.386;16.940;2023-02-03T01:54:06;16.10;39.40
21891;DHT22;11110;52.386;16.940;2023-02-03T01:56:41;16.00;39.40
21891;DHT22;11110;52.386;16.940;2023-02-03T01:59:16;16.10;39.50
21891;DHT22;11110;52.386;16.940;2023-02-03T02:01:49;16.00;39.50
21891;DHT22;11110;52.386;16.940;2023-02-03T02:04:19;16.00;39.60
21891;DHT22;11110;52.386;16.940;2023-02-03T02:06:48;16.00;39.60
21891;DHT22;11110;52.386;16.940;2023-02-03T02:09:17;16.00;39.60
21891;DHT22;11110;52.386;16.940;2023-02-03T02:11:47;16.00;39.60
21891;DHT22;11110;52.386;16.940;2023-02-03T02:14:15;16.00;39.60
21891;DHT22;11110;52.386;16.940;2023-02-03T02:16:48;16.00;39.50
21891;DHT22;11110;52.386;16.940;2023-02-03T02:19:44;16.10;39.50
21891;DHT22;11110;52.386;16.940;2023-02-03T02:22:22;16.10;39.50
21891;DHT22;11110;52.386;16.940;2023-02-03T02:25:20;16.10;39.40
21891;DHT22;11110;52.386;16.940;2023-02-03T02:28:26;16.10;39.30
21891;DHT22;11110;52.386;16.940;2023-02-03T02:34:09;16.10;39.30
21891;DHT22;11110;52.386;16.940;2023-02-03T02:36:51;16.10;39.40
21891;DHT22;11110;52.386;16.940;2023-02-03T02:39:25;16.00;39.30
21891;DHT22;11110;52.386;16.940;2023-02-03T02:41:57;16.00;39.30
21891;DHT22;11110;52.386;16.940;2023-02-03T02:44:31;16.00;39.40
21891;DHT22;11110;52.386;16.940;2023-02-03T02:47:05;16.00;39.30
21891;DHT22;11110;52.386;16.940;2023-02-03T02:49:43;16.00;39.30
21891;DHT22;11110;52.386;16.940;2023-02-03T02:52:16;16.00;39.40
21891;DHT22;11110;52.386;16.940;2023-02-03T02:54:48;16.00;39.50
21891;DHT22;11110;52.386;16.940;2023-02-03T02:57:20;16.00;39.50
21891;DHT22;11110;52.386;16.940;2023-02-03T02:59:52;16.00;39.60
21891;DHT22;11110;52.386;16.940;2023-02-03T03:02:21;16.00;39.50
21891;DHT22;11110;52.386;16.940;2023-02-03T03:04:51;15.90;39.50
21891;DHT22;11110;52.386;16.940;2023-02-03T03:07:23;15.80;39.60
21891;DHT22;11110;52.386;16.940;2023-02-03T03:09:58;15.80;39.70
21891;DHT22;11110;52.386;16.940;2023-02-03T03:12:31;15.80;39.60
21891;DHT22;11110;52.386;16.940;2023-02-03T03:15:05;15.80;39.60
21891;DHT22;11110;52.386;16.940;2023-02-03T03:17:39;15.90;39.60
21891;DHT22;11110;52.386;16.940;2023-02-03T03:20:16;15.80;39.70
21891;DHT22;11110;52.386;16.940;2023-02-03T03:22:51;15.60;39.70
21891;DHT22;11110;52.386;16.940;2023-02-03T03:25:24;15.60;39.80
21891;DHT22;11110;52.386;16.940;2023-02-03T03:27:57;15.60;40.00
21891;DHT22;11110;52.386;16.940;2023-02-03T03:30:29;15.50;40.00
21891;DHT22;11110;52.386;16.940;2023-02-03T03:33:00;15.50;40.10
21891;DHT22;11110;52.386;16.940;2023-02-03T03:35:37;15.50;40.10
21891;DHT22;11110;52.386;16.940;2023-02-03T03:38:11;15.60;40.20
21891;DHT22;11110;52.386;16.940;2023-02-03T03:40:48;15.60;40.20
21891;DHT22;11110;52.386;16.940;2023-02-03T03:43:20;15.60;40.30
21891;DHT22;11110;52.386;16.940;2023-02-03T03:45:53;15.50;40.30
21891;DHT22;11110;52.386;16.940;2023-02-03T03:48:26;15.50;40.40
21891;DHT22;11110;52.386;16.940;2023-02-03T03:51:01;15.50;40.50
21891;DHT22;11110;52.386;16.940;2023-02-03T03:53:33;15.50;40.40
21891;DHT22;11110;52.386;16.940;2023-02-03T03:56:06;15.50;40.40
21891;DHT22;11110;52.386;16.940;2023-02-03T03:58:39;15.40;40.40
21891;DHT22;11110;52.386;16.940;2023-02-03T04:01:12;15.50;40.60
21891;DHT22;11110;52.386;16.940;2023-02-03T04:03:44;15.50;40.60
21891;DHT22;11110;52.386;16.940;2023-02-03T04:06:15;15.50;40.60
21891;DHT22;11110;52.386;16.940;2023-02-03T04:08:44;15.40;40.60
21891;DHT22;11110;52.386;16.940;2023-02-03T04:11:12;15.40;40.70
21891;DHT22;11110;52.386;16.940;2023-02-03T04:14:02;15.40;40.90
21891;DHT22;11110;52.386;16.940;2023-02-03T04:16:31;15.30;40.90
21891;DHT22;11110;52.386;16.940;2023-02-03T04:18:59;15.40;40.90
21891;DHT22;11110;52.386;16.940;2023-02-03T04:21:29;15.40;41.00
21891;DHT22;11110;52.386;16.940;2023-02-03T04:23:58;15.40;40.90
21891;DHT22;11110;52.386;16.940;2023-02-03T04:26:26;15.40;41.00
21891;DHT22;11110;52.386;16.940;2023-02-03T04:28:55;15.30;40.90
21891;DHT22;11110;52.386;16.940;2023-02-03T04:31:24;15.40;41.00
21891;DHT22;11110;52.386;16.940;2023-02-03T04:33:53;15.40;40.90
21891;DHT22;11110;52.386;16.940;2023-02-03T04:36:21;15.40;41.00
21891;DHT22;11110;52.386;16.940;2023-02-03T04:38:51;15.40;41.20
21891;DHT22;11110;52.386;16.940;2023-02-03T04:41:20;15.50;41.00
21891;DHT22;11110;52.386;16.940;2023-02-03T04:43:49;15.50;40.90
21891;DHT22;11110;52.386;16.940;2023-02-03T04:46:17;15.50;40.80
21891;DHT22;11110;52.386;16.940;2023-02-03T04:48:46;15.60;40.70
21891;DHT22;11110;52.386;16.940;2023-02-03T04:51:15;15.70;40.70
21891;DHT22;11110;52.386;16.940;2023-02-03T04:53:43;15.70;40.50
21891;DHT22;11110;52.386;16.940;2023-02-03T04:56:13;15.60;40.40
21891;DHT22;11110;52.386;16.940;2023-02-03T04:58:42;15.70;40.60
21891;DHT22;11110;52.386;16.940;2023-02-03T05:01:11;15.70;40.60
21891;DHT22;11110;52.386;16.940;2023-02-03T05:03:40;15.70;40.50
21891;DHT22;11110;52.386;16.940;2023-02-03T05:06:09;15.70;40.50
21891;DHT22;11110;52.386;16.940;2023-02-03T05:08:37;15.60;40.50
21891;DHT22;11110;52.386;16.940;2023-02-03T05:11:06;15.80;40.50
21891;DHT22;11110;52.386;16.940;2023-02-03T05:13:35;15.80;40.40
21891;DHT22;11110;52.386;16.940;2023-02-03T05:16:05;15.90;40.50
21891;DHT22;11110;52.386;16.940;2023-02-03T05:18:34;15.90;40.40
21891;DHT22;11110;52.386;16.940;2023-02-03T05:21:03;15.90;40.30
21891;DHT22;11110;52.386;16.940;2023-02-03T05:23:32;16.00;40.40
21891;DHT22;11110;52.386;16.940;2023-02-03T05:26:03;16.00;40.40
21891;DHT22;11110;52.386;16.940;2023-02-03T05:28:32;16.00;40.40
21891;DHT22;11110;52.386;16.940;2023-02-03T05:31:02;16.10;40.70
21891;DHT22;11110;52.386;16.940;2023-02-03T05:33:30;16.10;40.80
21891;DHT22;11110;52.386;16.940;2023-02-03T05:35:59;16.10;40.90
21891;DHT22;11110;52.386;16.940;2023-02-03T05:38:28;16.10;41.10
21891;DHT22;11110;52.386;16.940;2023-02-03T05:40:56;16.10;41.20
21891;DHT22;11110;52.386;16.940;2023-02-03T05:43:42;16.20;41.30
21891;DHT22;11110;52.386;16.940;2023-02-03T05:46:13;16.20;41.50
21891;DHT22;11110;52.386;16.940;2023-02-03T05:48:41;16.20;42.20
21891;DHT22;11110;52.386;16.940;2023-02-03T05:51:10;16.10;41.70
21891;DHT22;11110;52.386;16.940;2023-02-03T05:53:38;16.10;41.80
21891;DHT22;11110;52.386;16.940;2023-02-03T05:56:07;16.20;41.90
21891;DHT22;11110;52.386;16.940;2023-02-03T05:58:35;16.20;42.00
21891;DHT22;11110;52.386;16.940;2023-02-03T06:01:04;16.20;42.10
21891;DHT22;11110;52.386;16.940;2023-02-03T06:03:34;16.30;42.30
21891;DHT22;11110;52.386;16.940;2023-02-03T06:06:03;16.30;42.20
21891;DHT22;11110;52.386;16.940;2023-02-03T06:08:31;16.30;42.40
21891;DHT22;11110;52.386;16.940;2023-02-03T06:11:00;16.30;42.40
21891;DHT22;11110;52.386;16.940;2023-02-03T06:13:28;16.30;42.40
21891;DHT22;11110;52.386;16.940;2023-02-03T06:15:57;16.30;42.50
21891;DHT22;11110;52.386;16.940;2023-02-03T06:18:26;16.40;42.60
21891;DHT22;11110;52.386;16.940;2023-02-03T06:20:56;16.40;42.50
21891;DHT22;11110;52.386;16.940;2023-02-03T06:23:24;16.50;42.70
21891;DHT22;11110;52.386;16.940;2023-02-03T06:25:53;16.50;42.60
21891;DHT22;11110;52.386;16.940;2023-02-03T06:28:21;16.50;42.70
21891;DHT22;11110;52.386;16.940;2023-02-03T06:30:50;16.50;42.60
21891;DHT22;11110;52.386;16.940;2023-02-03T06:33:19;16.50;42.70
21891;DHT22;11110;52.386;16.940;2023-02-03T06:35:48;16.40;42.80
21891;DHT22;11110;52.386;16.940;2023-02-03T06:38:18;16.30;42.90
21891;DHT22;11110;52.386;16.940;2023-02-03T06:40:46;16.20;43.10
21891;DHT22;11110;52.386;16.940;2023-02-03T06:43:15;16.10;43.20
21891;DHT22;11110;52.386;16.940;2023-02-03T06:45:45;16.10;43.50
21891;DHT22;11110;52.386;16.940;2023-02-03T06:48:14;16.10;43.50
21891;DHT22;11110;52.386;16.940;2023-02-03T06:50:44;15.90;43.70
21891;DHT22;11110;52.386;16.940;2023-02-03T06:53:14;16.00;44.10
21891;DHT22;11110;52.386;16.940;2023-02-03T06:55:45;15.80;44.20
21891;DHT22;11110;52.386;16.940;2023-02-03T06:58:14;15.90;44.40
21891;DHT22;11110;52.386;16.940;2023-02-03T07:00:43;15.80;44.60
21891;DHT22;11110;52.386;16.940;2023-02-03T07:03:11;15.90;44.60
21891;DHT22;11110;52.386;16.940;2023-02-03T07:05:40;15.80;44.60
21891;DHT22;11110;52.386;16.940;2023-02-03T07:08:09;15.70;44.70
21891;DHT22;11110;52.386;16.940;2023-02-03T07:10:37;15.70;45.20
21891;DHT22;11110;52.386;16.940;2023-02-03T07:13:07;15.40;45.30
21891;DHT22;11110;52.386;16.940;2023-02-03T07:15:36;15.50;45.70
21891;DHT22;11110;52.386;16.940;2023-02-03T07:18:05;15.40;45.70
21891;DHT22;11110;52.386;16.940;2023-02-03T07:20:34;15.60;45.80
21891;DHT22;11110;52.386;16.940;2023-02-03T07:23:02;15.60;45.80
21891;DHT22;11110;52.386;16.940;2023-02-03T07:25:31;15.60;45.70
21891;DHT22;11110;52.386;16.940;2023-02-03T07:28:00;15.50;45.70
21891;DHT22;11110;52.386;16.940;2023-02-03T07:30:30;15.50;45.90
21891;DHT22;11110;52.386;16.940;2023-02-03T07:32:59;15.50;46.00
21891;DHT22;11110;52.386;16.940;2023-02-03T07:35:28;15.40;46.00
21891;DHT22;11110;52.386;16.940;2023-02-03T07:37:56;15.40;46.10
21891;DHT22;11110;52.386;16.940;2023-02-03T07:40:25;15.50;46.40
21891;DHT22;11110;52.386;16.940;2023-02-03T07:42:54;15.40;46.30
21891;DHT22;11110;52.386;16.940;2023-02-03T07:45:22;15.60;46.50
21891;DHT22;11110;52.386;16.940;2023-02-03T07:47:52;15.60;46.30
21891;DHT22;11110;52.386;16.940;2023-02-03T07:50:21;15.50;46.30
21891;DHT22;11110;52.386;16.940;2023-02-03T07:52:50;15.50;46.40
21891;DHT22;11110;52.386;16.940;2023-02-03T07:55:19;15.50;46.50
21891;DHT22;11110;52.386;16.940;2023-02-03T07:57:47;15.50;46.70
21891;DHT22;11110;52.386;16.940;2023-02-03T08:00:17;15.30;46.80
21891;DHT22;11110;52.386;16.940;2023-02-03T08:02:46;15.20;47.00
21891;DHT22;11110;52.386;16.940;2023-02-03T08:05:17;15.20;47.00
21891;DHT22;11110;52.386;16.940;2023-02-03T08:07:45;15.30;47.00
21891;DHT22;11110;52.386;16.940;2023-02-03T08:10:14;15.30;46.90
21891;DHT22;11110;52.386;16.940;2023-02-03T08:12:44;15.10;47.20
21891;DHT22;11110;52.386;16.940;2023-02-03T08:15:13;15.20;47.30
21891;DHT22;11110;52.386;16.940;2023-02-03T08:17:43;15.10;47.40
21891;DHT22;11110;52.386;16.940;2023-02-03T08:20:12;15.10;47.40
21891;DHT22;11110;52.386;16.940;2023-02-03T08:22:42;15.20;47.40
21891;DHT22;11110;52.386;16.940;2023-02-03T08:25:11;15.30;47.20
21891;DHT22;11110;52.386;16.940;2023-02-03T08:27:40;15.30;47.00
21891;DHT22;11110;52.386;16.940;2023-02-03T08:30:11;15.30;47.10
21891;DHT22;11110;52.386;16.940;2023-02-03T08:32:40;15.30;47.40
21891;DHT22;11110;52.386;16.940;2023-02-03T08:35:09;15.30;47.40
21891;DHT22;11110;52.386;16.940;2023-02-03T08:37:37;15.30;47.20
21891;DHT22;11110;52.386;16.940;2023-02-03T08:40:09;15.40;47.10
21891;DHT22;11110;52.386;16.940;2023-02-03T08:42:38;15.30;46.90
21891;DHT22;11110;52.386;16.940;2023-02-03T08:45:07;15.40;46.90
21891;DHT22;11110;52.386;16.940;2023-02-03T08:47:36;15.60;46.70
21891;DHT22;11110;52.386;16.940;2023-02-03T08:50:07;15.70;46.60
21891;DHT22;11110;52.386;16.940;2023-02-03T08:52:36;15.60;46.60
21891;DHT22;11110;52.386;16.940;2023-02-03T08:55:05;15.60;46.60
21891;DHT22;11110;52.386;16.940;2023-02-03T08:57:35;15.60;46.60
21891;DHT22;11110;52.386;16.940;2023-02-03T09:00:05;15.50;46.70
21891;DHT22;11110;52.386;16.940;2023-02-03T09:02:34;15.50;46.70
21891;DHT22;11110;52.386;16.940;2023-02-03T09:05:03;15.40;46.70
21891;DHT22;11110;52.386;16.940;2023-02-03T09:07:31;15.40;46.80
21891;DHT22;11110;52.386;16.940;2023-02-03T09:10:00;15.50;46.80
21891;DHT22;11110;52.386;16.940;2023-02-03T09:12:28;15.60;46.70
21891;DHT22;11110;52.386;16.940;2023-02-03T09:14:59;15.70;46.70
21891;DHT22;11110;52.386;16.940;2023-02-03T09:17:27;15.50;46.80
21891;DHT22;11110;52.386;16.940;2023-02-03T09:19:56;15.70;46.80
21891;DHT22;11110;52.386;16.940;2023-02-03T09:22:24;15.90;46.70
21891;DHT22;11110;52.386;16.940;2023-02-03T09:24:53;16.00;46.30
21891;DHT22;11110;52.386;16.940;2023-02-03T09:27:22;16.20;46.30
21891;DHT22;11110;52.386;16.940;2023-02-03T09:29:51;16.10;46.10
21891;DHT22;11110;52.386;16.940;2023-02-03T09:32:21;16.00;46.20
21891;DHT22;11110;52.386;16.940;2023-02-03T09:34:49;16.20;46.20
21891;DHT22;11110;52.386;16.940;2023-02-03T09:37:18;16.20;46.00
21891;DHT22;11110;52.386;16.940;2023-02-03T09:39:47;16.30;46.00
21891;DHT22;11110;52.386;16.940;2023-02-03T09:42:27;16.20;45.80
21891;DHT22;11110;52.386;16.940;2023-02-03T09:45:11;16.10;45.90
21891;DHT22;11110;52.386;16.940;2023-02-03T09:47:45;16.10;46.20
21891;DHT22;11110;52.386;16.940;2023-02-03T09:50:23;16.20;46.30
21891;DHT22;11110;52.386;16.940;2023-02-03T09:52:53;16.20;46.30
21891;DHT22;11110;52.386;16.940;2023-02-03T09:55:29;16.20;46.20
21891;DHT22;11110;52.386;16.940;2023-02-03T09:58:04;16.30;46.30
21891;DHT22;11110;52.386;16.940;2023-02-03T10:00:35;16.10;46.20
21891;DHT22;11110;52.386;16.940;2023-02-03T10:03:16;16.10;46.20
21891;DHT22;11110;52.386;16.940;2023-02-03T10:06:12;16.10;46.30
21891;DHT22;11110;52.386;16.940;2023-02-03T10:09:10;16.20;46.40
21891;DHT22;11110;52.386;16.940;2023-02-03T10:12:04;16.40;46.20
21891;DHT22;11110;52.386;16.940;2023-02-03T10:14:46;16.40;46.00
21891;DHT22;11110;52.386;16.940;2023-02-03T10:17:25;16.40;46.00
21891;DHT22;11110;52.386;16.940;2023-02-03T10:20:02;16.30;46.00
21891;DHT22;11110;52.386;16.940;2023-02-03T10:22:36;16.30;46.30
21891;DHT22;11110;52.386;16.940;2023-02-03T10:25:16;16.30;46.40
21891;DHT22;11110;52.386;16.940;2023-02-03T10:27:48;16.30;46.50
21891;DHT22;11110;52.386;16.940;2023-02-03T10:30:19;16.40;46.50
21891;DHT22;11110;52.386;16.940;2023-02-03T10:32:50;16.50;46.30
21891;DHT22;11110;52.386;16.940;2023-02-03T10:35:27;16.50;46.30
21891;DHT22;11110;52.386;16.940;2023-02-03T10:37:59;16.60;46.30
21891;DHT22;11110;52.386;16.940;2023-02-03T10:40:28;16.60;46.40
21891;DHT22;11110;52.386;16.940;2023-02-03T10:42:58;16.60;46.40
21891;DHT22;11110;52.386;16.940;2023-02-03T10:45:43;16.80;46.30
21891;DHT22;11110;52.386;16.940;2023-02-03T10:48:15;16.80;46.20
21891;DHT22;11110;52.386;16.940;2023-02-03T10:50:48;17.00;46.30
21891;DHT22;11110;52.386;16.940;2023-02-03T10:53:23;17.10;46.30
21891;DHT22;11110;52.386;16.940;2023-02-03T10:56:01;17.20;46.30
21891;DHT22;11110;52.386;16.940;2023-02-03T10:58:33;17.20;46.20
21891;DHT22;11110;52.386;16.940;2023-02-03T11:01:09;17.30;46.20
21891;DHT22;11110;52.386;16.940;2023-02-03T11:03:41;17.30;46.20
21891;DHT22;11110;52.386;16.940;2023-02-03T11:06:13;17.30;46.20
21891;DHT22;11110;52.386;16.940;2023-02-03T11:08:43;17.40;46.30
21891;DHT22;11110;52.386;16.940;2023-02-03T11:11:14;17.50;46.20
21891;DHT22;11110;52.386;16.940;2023-02-03T11:13:43;17.60;46.20
21891;DHT22;11110;52.386;16.940;2023-02-03T11:16:14;17.60;46.10
21891;DHT22;11110;52.386;16.940;2023-02-03T11:18:49;17.70;46.10
21891;DHT22;11110;52.386;16.940;2023-02-03T11:21:22;17.80;46.10
21891;DHT22;11110;52.386;16.940;2023-02-03T11:23:59;17.80;46.00
21891;DHT22;11110;52.386;16.940;2023-02-03T11:26:31;17.80;46.00
21891;DHT22;11110;52.386;16.940;2023-02-03T11:29:03;17.90;46.00
21891;DHT22;11110;52.386;16.940;2023-02-03T11:31:33;17.90;46.00
21891;DHT22;11110;52.386;16.940;2023-02-03T11:34:04;18.00;46.10
21891;DHT22;11110;52.386;16.940;2023-02-03T11:36:35;18.00;46.10
21891;DHT22;11110;52.386;16.940;2023-02-03T11:39:18;18.00;46.20
21891;DHT22;11110;52.386;16.940;2023-02-03T11:41:47;18.20;46.60
21891;DHT22;11110;52.386;16.940;2023-02-03T11:44:19;18.10;46.70
21891;DHT22;11110;52.386;16.940;2023-02-03T11:46:51;18.20;47.00
21891;DHT22;11110;52.386;16.940;2023-02-03T11:50:02;18.30;47.20
21891;DHT22;11110;52.386;16.940;2023-02-03T11:53:03;18.30;47.20
21891;DHT22;11110;52.386;16.940;2023-02-03T11:55:45;18.40;47.30
21891;DHT22;11110;52.386;16.940;2023-02-03T11:58:34;18.50;47.40
21891;DHT22;11110;52.386;16.940;2023-02-03T12:01:07;18.60;47.60
21891;DHT22;11110;52.386;16.940;2023-02-03T12:03:55;18.60;47.50
21891;DHT22;11110;52.386;16.940;2023-02-03T12:06:44;18.70;47.60
21891;DHT22;11110;52.386;16.940;2023-02-03T12:09:24;18.70;47.60
21891;DHT22;11110;52.386;16.940;2023-02-03T12:14:59;18.90;47.70
21891;DHT22;11110;52.386;16.940;2023-02-03T12:17:42;18.80;47.60
21891;DHT22;11110;52.386;16.940;2023-02-03T12:20:29;19.00;48.10
21891;DHT22;11110;52.386;16.940;2023-02-03T12:23:09;19.00;48.20
21891;DHT22;11110;52.386;16.940;2023-02-03T12:25:51;19.10;48.30
21891;DHT22;11110;52.386;16.940;2023-02-03T12:28:35;19.10;48.40
21891;DHT22;11110;52.386;16.940;2023-02-03T12:31:13;19.10;48.50
21891;DHT22;11110;52.386;16.940;2023-02-03T12:33:47;19.20;48.70
21891;DHT22;11110;52.386;16.940;2023-02-03T12:36:20;19.30;48.80
21891;DHT22;11110;52.386;16.940;2023-02-03T12:38:54;19.50;48.80
21891;DHT22;11110;52.386;16.940;2023-02-03T12:41:27;19.30;48.90
21891;DHT22;11110;52.386;16.940;2023-02-03T12:43:59;19.50;49.00
21891;DHT22;11110;52.386;16.940;2023-02-03T12:46:31;19.60;49.20
21891;DHT22;11110;52.386;16.940;2023-02-03T12:49:09;19.90;49.00
21891;DHT22;11110;52.386;16.940;2023-02-03T12:51:44;19.80;48.80
21891;DHT22;11110;52.386;16.940;2023-02-03T12:54:26;19.90;48.80
21891;DHT22;11110;52.386;16.940;2023-02-03T12:57:17;19.80;48.70
21891;DHT22;11110;52.386;16.940;2023-02-03T12:59:58;20.00;48.80
21891;DHT22;11110;52.386;16.940;2023-02-03T13:02:31;20.10;48.80
21891;DHT22;11110;52.386;16.940;2023-02-03T13:05:12;20.20;48.70
21891;DHT22;11110;52.386;16.940;2023-02-03T13:07:47;20.30;48.50
21891;DHT22;11110;52.386;16.940;2023-02-03T13:10:20;20.20;48.00
21891;DHT22;11110;52.386;16.940;2023-02-03T13:12:54;20.20;48.00
21891;DHT22;11110;52.386;16.940;2023-02-03T13:15:27;20.30;48.10
21891;DHT22;11110;52.386;16.940;2023-02-03T13:18:00;20.10;48.00
21891;DHT22;11110;52.386;16.940;2023-02-03T13:20:33;20.00;47.60
21891;DHT22;11110;52.386;16.940;2023-02-03T13:23:04;19.80;46.50
21891;DHT22;11110;52.386;16.940;2023-02-03T13:25:46;19.70;46.40
21891;DHT22;11110;52.386;16.940;2023-02-03T13:28:28;19.60;46.50
21891;DHT22;11110;52.386;16.940;2023-02-03T13:31:17;19.50;46.90
21891;DHT22;11110;52.386;16.940;2023-02-03T13:34:19;19.60;47.00
21891;DHT22;11110;52.386;16.940;2023-02-03T13:37:30;19.80;46.80
21891;DHT22;11110;52.386;16.940;2023-02-03T13:40:17;19.90;46.40
21891;DHT22;11110;52.386;16.940;2023-02-03T13:42:52;19.80;46.50
21891;DHT22;11110;52.386;16.940;2023-02-03T13:45:26;20.00;46.70
21891;DHT22;11110;52.386;16.940;2023-02-03T13:48:00;19.80;45.80
21891;DHT22;11110;52.386;16.940;2023-02-03T13:50:35;19.70;45.80
21891;DHT22;11110;52.386;16.940;2023-02-03T13:53:07;19.60;45.50
21891;DHT22;11110;52.386;16.940;2023-02-03T13:55:42;19.50;45.80
21891;DHT22;11110;52.386;16.940;2023-02-03T13:58:19;19.20;45.80
21891;DHT22;11110;52.386;16.940;2023-02-03T14:01:26;19.10;46.00
21891;DHT22;11110;52.386;16.940;2023-02-03T14:03:56;19.20;46.00
21891;DHT22;11110;52.386;16.940;2023-02-03T14:07:01;19.10;45.40
21891;DHT22;11110;52.386;16.940;2023-02-03T14:09:40;19.10;44.90
21891;DHT22;11110;52.386;16.940;2023-02-03T14:12:31;19.20;44.80
21891;DHT22;11110;52.386;16.940;2023-02-03T14:15:27;19.20;44.70
21891;DHT22;11110;52.386;16.940;2023-02-03T14:21:08;19.30;44.00
21891;DHT22;11110;52.386;16.940;2023-02-03T14:26:38;19.30;44.00
21891;DHT22;11110;52.386;16.940;2023-02-03T14:29:10;19.30;44.10
21891;DHT22;11110;52.386;16.940;2023-02-03T14:31:53;19.30;44.20
21891;DHT22;11110;52.386;16.940;2023-02-03T14:34:30;19.20;44.20
21891;DHT22;11110;52.386;16.940;2023-02-03T14:37:15;19.30;44.50
21891;DHT22;11110;52.386;16.940;2023-02-03T14:40:20;19.50;44.30
21891;DHT22;11110;52.386;16.940;2023-02-03T14:46:14;19.40;44.40
21891;DHT22;11110;52.386;16.940;2023-02-03T14:52:12;19.50;44.50
21891;DHT22;11110;52.386;16.940;2023-02-03T14:54:53;19.70;44.40
21891;DHT22;11110;52.386;16.940;2023-02-03T14:57:35;19.70;44.30
21891;DHT22;11110;52.386;16.940;2023-02-03T15:00:08;19.80;44.10
21891;DHT22;11110;52.386;16.940;2023-02-03T15:03:19;19.70;44.20
21891;DHT22;11110;52.386;16.940;2023-02-03T15:05:51;19.70;44.20
21891;DHT22;11110;52.386;16.940;2023-02-03T15:08:39;19.90;44.00
21891;DHT22;11110;52.386;16.940;2023-02-03T15:11:27;19.70;44.20
21891;DHT22;11110;52.386;16.940;2023-02-03T15:16:42;20.00;43.60
21891;DHT22;11110;52.386;16.940;2023-02-03T15:19:17;19.90;43.60
21891;DHT22;11110;52.386;16.940;2023-02-03T15:21:46;20.10;44.00
21891;DHT22;11110;52.386;16.940;2023-02-03T15:24:18;20.20;43.00
21891;DHT22;11110;52.386;16.940;2023-02-03T15:26:51;20.00;43.20
21891;DHT22;11110;52.386;16.940;2023-02-03T15:29:27;20.00;43.00
21891;DHT22;11110;52.386;16.940;2023-02-03T15:32:07;20.10;42.90
21891;DHT22;11110;52.386;16.940;2023-02-03T15:34:40;20.00;42.90
21891;DHT22;11110;52.386;16.940;2023-02-03T15:37:16;20.00;43.30
21891;DHT22;11110;52.386;16.940;2023-02-03T15:39:53;20.00;42.80
21891;DHT22;11110;52.386;16.940;2023-02-03T15:42:25;20.00;42.70
21891;DHT22;11110;52.386;16.940;2023-02-03T15:44:59;19.90;43.10
21891;DHT22;11110;52.386;16.940;2023-02-03T15:47:33;19.90;43.60
21891;DHT22;11110;52.386;16.940;2023-02-03T15:50:14;19.80;43.80
21891;DHT22;11110;52.386;16.940;2023-02-03T15:52:47;19.70;43.90
21891;DHT22;11110;52.386;16.940;2023-02-03T15:55:24;19.70;44.30
21891;DHT22;11110;52.386;16.940;2023-02-03T15:57:56;19.70;44.50
21891;DHT22;11110;52.386;16.940;2023-02-03T16:00:31;19.70;45.10
21891;DHT22;11110;52.386;16.940;2023-02-03T16:03:02;19.90;44.40
21891;DHT22;11110;52.386;16.940;2023-02-03T16:05:33;19.80;43.90
21891;DHT22;11110;52.386;16.940;2023-02-03T16:08:33;19.90;43.70
21891;DHT22;11110;52.386;16.940;2023-02-03T16:11:22;19.70;44.00
21891;DHT22;11110;52.386;16.940;2023-02-03T16:13:52;19.80;44.20
21891;DHT22;11110;52.386;16.940;2023-02-03T16:16:24;19.90;44.20